Startpagina
METAR-TAF:

METAR-TAF

Vliegvelden :

Chugiak, Alaska, Verenigde Staten

breedte: 61-25N, lengte: 149-31W, hoogte: 29 m

Actueel weer

Dit bericht is 26 minuten geleden gemaakt, om 04:56 UTC
Weinig wind
Temperatuur -1°C
Vochtigheid 100%
Druk 1005 hPa
Zicht: 16.1 km
Geheel bewolkt op 11000 ft

METAR: PABV 090456Z AUTO 00000KT 10SM OVC110 M01/M01 A2967 RMK AO2 SLP052 T10061011 FZRANO

Tijdstip: 20:22 (05:22 UTC)


TAF: ontbreekt

Waarnemingen en weersverwachtingen van meer dan 4000 vliegvelden (METAR en TAF).

De beschikbare stations zijn de gele en rode punten op de kaart.

Ga met uw muis naar het station om de naam te zien.

Klik dan om waarnemingen en weersverwachtingen te zien.

kaart wijzigen: klik op de groene knoppen met een zwart kruis om in te zoomen, op de groene knop met een streepje om uit te zoomen of op de groene pijlen voor aangrenzende kaarten.


METAR-TAF: